createdAt,value
2022-10-09T00:02:10.855Z,101599.64
2022-10-09T00:05:25.498Z,101602.55
2022-10-09T00:09:13.067Z,101611.19
2022-10-09T00:12:43.930Z,101610.24
2022-10-09T00:16:11.381Z,101614.50
2022-10-09T00:19:31.682Z,101613.25
2022-10-09T00:22:39.917Z,101619.27
2022-10-09T00:25:57.066Z,101626.01
2022-10-09T00:29:43.332Z,101627.11
2022-10-09T00:33:21.676Z,101630.04
2022-10-09T00:36:54.199Z,101629.20
2022-10-09T00:40:34.629Z,101629.48
2022-10-09T00:44:20.585Z,101633.98
2022-10-09T00:48:19.977Z,101641.80
2022-10-09T00:51:35.060Z,101640.02
2022-10-09T00:55:08.314Z,101641.39
2022-10-09T00:58:55.695Z,101645.45
2022-10-09T01:02:36.916Z,101650.23
2022-10-09T01:06:27.228Z,101651.11
2022-10-09T01:10:04.164Z,101661.17
2022-10-09T01:13:41.539Z,101659.50
2022-10-09T01:17:31.723Z,101661.84
2022-10-09T01:21:25.174Z,101665.16
2022-10-09T01:24:55.356Z,101666.25
2022-10-09T01:28:42.336Z,101664.95
2022-10-09T01:32:22.386Z,101670.98
2022-10-09T01:35:51.419Z,101674.46
2022-10-09T01:39:25.546Z,101680.77
2022-10-09T01:42:47.736Z,101688.30
2022-10-09T01:46:56.795Z,101684.41
2022-10-09T01:51:05.638Z,101678.54
2022-10-09T01:54:26.294Z,101683.48
2022-10-09T01:57:59.432Z,101693.45
2022-10-09T02:01:46.987Z,101704.16
2022-10-09T02:05:32.793Z,101709.87
2022-10-09T02:09:20.284Z,101716.83
2022-10-09T02:13:07.925Z,101712.63
2022-10-09T02:16:57.236Z,101714.12
2022-10-09T02:20:20.518Z,101717.05
2022-10-09T02:24:08.179Z,101719.29
2022-10-09T02:27:54.481Z,101723.46
2022-10-09T02:32:00.026Z,101726.34
2022-10-09T02:35:32.470Z,101731.82
2022-10-09T02:39:20.182Z,101736.02
2022-10-09T02:43:00.165Z,101743.00
2022-10-09T02:46:47.806Z,101742.54
2022-10-09T02:50:20.927Z,101751.65
2022-10-09T02:53:55.444Z,101756.77
2022-10-09T02:57:05.196Z,101756.30
2022-10-09T03:00:52.657Z,101756.27
2022-10-09T03:04:08.141Z,101760.73
2022-10-09T03:07:55.746Z,101754.96
2022-10-09T03:11:23.622Z,101764.48
2022-10-09T03:14:45.285Z,101768.44
2022-10-09T03:18:32.744Z,101775.34
2022-10-09T03:22:02.072Z,101783.17
2022-10-09T03:25:49.607Z,101787.61
2022-10-09T03:29:35.326Z,101787.98
2022-10-09T03:33:22.775Z,101794.05
2022-10-09T03:37:10.900Z,101800.97
2022-10-09T03:40:50.199Z,101801.77
2022-10-09T03:44:26.526Z,101804.73
2022-10-09T03:48:04.760Z,101806.70
2022-10-09T03:51:35.294Z,101808.13
2022-10-09T03:55:22.778Z,101809.88
2022-10-09T03:58:50.626Z,101817.40
2022-10-09T04:02:03.629Z,101817.27
2022-10-09T04:05:30.928Z,101823.80
2022-10-09T04:09:18.026Z,101823.56
2022-10-09T04:13:05.559Z,101823.06
2022-10-09T04:16:52.734Z,101822.79
2022-10-09T04:20:22.699Z,101825.55
2022-10-09T04:24:09.871Z,101835.78
2022-10-09T04:27:57.267Z,101836.72
2022-10-09T04:31:44.999Z,101831.16
2022-10-09T04:35:23.073Z,101831.49
2022-10-09T04:38:42.220Z,101842.73
2022-10-09T04:42:12.145Z,101842.02
2022-10-09T04:45:59.597Z,101841.95
2022-10-09T04:49:41.069Z,101854.98
2022-10-09T04:53:12.052Z,101853.16
2022-10-09T04:56:59.948Z,101852.13
2022-10-09T05:00:30.589Z,101854.36
2022-10-09T05:04:18.021Z,101855.86
2022-10-09T05:07:53.223Z,101865.61
2022-10-09T05:11:13.926Z,101867.95
2022-10-09T05:14:52.724Z,101876.98
2022-10-09T05:18:40.282Z,101883.77
2022-10-09T05:22:03.510Z,101886.98
2022-10-09T05:25:31.300Z,101890.54
2022-10-09T05:29:17.287Z,101892.59
2022-10-09T05:33:04.802Z,101899.45
2022-10-09T05:36:52.186Z,101904.91
2022-10-09T05:40:32.514Z,101899.23
2022-10-09T05:43:58.239Z,101901.14
2022-10-09T05:47:18.247Z,101906.96
2022-10-09T05:50:10.412Z,101907.80
2022-10-09T05:53:36.961Z,101914.42
2022-10-09T05:56:54.320Z,101915.95
2022-10-09T06:00:42.865Z,101918.90
2022-10-09T06:04:03.431Z,101923.13
2022-10-09T06:06:57.996Z,101930.71
2022-10-09T06:09:47.702Z,101933.70
2022-10-09T06:12:57.115Z,101941.13
2022-10-09T06:16:16.991Z,101948.80
2022-10-09T06:19:45.862Z,101954.66
2022-10-09T06:23:08.799Z,101959.02
2022-10-09T06:26:57.313Z,101963.53
2022-10-09T06:30:41.902Z,101960.20
2022-10-09T06:34:21.425Z,101966.74
2022-10-09T06:38:04.722Z,101973.70
2022-10-09T06:41:32.228Z,101978.61
2022-10-09T06:44:59.885Z,101983.02
2022-10-09T06:48:38.782Z,101987.48
2022-10-09T06:52:17.158Z,101989.48
2022-10-09T06:56:05.743Z,101993.66
2022-10-09T06:59:37.439Z,101998.31
2022-10-09T07:03:00.616Z,102001.39
2022-10-09T07:06:51.105Z,102008.40
2022-10-09T07:10:31.532Z,102012.16
2022-10-09T07:14:19.531Z,102017.89
2022-10-09T07:18:07.772Z,102019.76
2022-10-09T07:21:55.572Z,102023.50
2022-10-09T07:25:43.604Z,102026.60
2022-10-09T07:29:32.148Z,102029.90
2022-10-09T07:33:00.591Z,102025.33
2022-10-09T07:36:54.572Z,102024.02
2022-10-09T07:40:42.390Z,102025.95
2022-10-09T07:44:20.290Z,102032.10
2022-10-09T07:48:08.352Z,102029.92
2022-10-09T07:52:01.937Z,102032.70
2022-10-09T07:55:49.761Z,102037.25
2022-10-09T07:59:37.688Z,102036.86
2022-10-09T08:03:25.475Z,102039.34
2022-10-09T08:06:59.026Z,102043.30
2022-10-09T08:10:49.062Z,102047.55
2022-10-09T08:14:39.747Z,102046.65
2022-10-09T08:18:28.125Z,102052.14
2022-10-09T08:22:16.766Z,102046.33
2022-10-09T08:26:08.910Z,102051.52
2022-10-09T08:30:00.400Z,102055.29
2022-10-09T08:33:49.080Z,102057.29
2022-10-09T08:37:21.945Z,102059.92
2022-10-09T08:41:12.756Z,102061.70
2022-10-09T08:45:18.676Z,102060.68
2022-10-09T08:49:06.963Z,102067.88
2022-10-09T08:52:56.656Z,102064.02
2022-10-09T08:56:48.845Z,102066.17
2022-10-09T09:00:37.352Z,102066.71
2022-10-09T09:04:36.961Z,102067.18
2022-10-09T09:08:28.317Z,102066.35
2022-10-09T09:12:29.451Z,102067.73
2022-10-09T09:16:29.319Z,102066.59
2022-10-09T09:20:33.836Z,102067.04
2022-10-09T09:24:27.120Z,102056.91
2022-10-09T09:28:12.516Z,102057.02
2022-10-09T09:32:04.784Z,102055.41
2022-10-09T09:35:53.238Z,102056.48
2022-10-09T09:43:53.702Z,102065.77
2022-10-09T09:47:42.165Z,102068.52
2022-10-09T09:51:30.968Z,102068.16
2022-10-09T09:55:22.003Z,102069.69
2022-10-09T09:59:18.971Z,102075.13
2022-10-09T10:03:08.546Z,102073.39
2022-10-09T10:07:14.232Z,102069.45
2022-10-09T10:11:08.428Z,102067.73
2022-10-09T10:15:07.863Z,102068.33
2022-10-09T10:18:55.922Z,102065.52
2022-10-09T10:22:49.659Z,102069.30
2022-10-09T10:26:37.741Z,102067.90
2022-10-09T10:30:26.258Z,102066.15
2022-10-09T10:34:13.968Z,102067.77
2022-10-09T10:38:08.542Z,102077.89
2022-10-09T10:41:59.815Z,102074.55
2022-10-09T10:45:53.421Z,102078.34
2022-10-09T10:49:41.353Z,102075.55
2022-10-09T10:53:44.915Z,102077.20
2022-10-09T10:57:38.423Z,102077.71
2022-10-09T11:01:26.354Z,102074.92
2022-10-09T11:05:21.224Z,102071.14
2022-10-09T11:09:22.097Z,102070.52
2022-10-09T11:13:13.812Z,102073.27
2022-10-09T11:17:20.143Z,102074.63
2022-10-09T11:21:31.319Z,102077.92
2022-10-09T11:25:19.414Z,102078.01
2022-10-09T11:29:07.170Z,102071.74
2022-10-09T11:33:13.242Z,102070.51
2022-10-09T11:37:13.924Z,102065.66
2022-10-09T11:41:07.329Z,102064.17
2022-10-09T11:45:05.836Z,102056.25
2022-10-09T11:48:54.861Z,102049.43
2022-10-09T11:52:59.240Z,102047.84
2022-10-09T11:56:46.988Z,102041.66
2022-10-09T12:00:42.785Z,102040.58
2022-10-09T12:04:55.619Z,102038.85
2022-10-09T12:08:58.860Z,102038.02
2022-10-09T12:12:58.220Z,102027.02
2022-10-09T12:16:49.202Z,102019.84
2022-10-09T12:20:46.289Z,102018.30
2022-10-09T12:24:38.193Z,102018.91
2022-10-09T12:28:27.052Z,102020.15
2022-10-09T12:32:18.390Z,102013.38
2022-10-09T12:36:11.582Z,102014.42
2022-10-09T12:40:04.853Z,102004.98
2022-10-09T12:43:53.721Z,102003.73
2022-10-09T12:47:42.615Z,102006.55
2022-10-09T12:51:38.399Z,102009.52
2022-10-09T12:55:26.927Z,102012.75
2022-10-09T12:59:16.509Z,102009.98
2022-10-09T13:03:10.662Z,102008.35
2022-10-09T13:07:00.099Z,102005.23
2022-10-09T13:10:56.933Z,102003.05
2022-10-09T13:14:46.655Z,102003.13
2022-10-09T13:18:38.206Z,101996.08
2022-10-09T13:22:31.104Z,101990.23
2022-10-09T13:26:26.244Z,101977.33
2022-10-09T13:30:14.921Z,101979.52
2022-10-09T13:34:02.669Z,101976.95
2022-10-09T13:37:53.703Z,101974.77
2022-10-09T13:41:41.917Z,101975.06
2022-10-09T13:45:30.029Z,101973.59
2022-10-09T13:49:17.469Z,101972.67
2022-10-09T13:53:08.406Z,101972.32
2022-10-09T13:56:57.151Z,101972.91
2022-10-09T14:00:47.329Z,101972.45
2022-10-09T14:04:39.037Z,101971.16
2022-10-09T14:08:26.723Z,101967.88
2022-10-09T14:12:15.422Z,101963.16
2022-10-09T14:16:03.935Z,101962.41
2022-10-09T14:19:58.341Z,101954.48
2022-10-09T14:23:45.966Z,101949.86
2022-10-09T14:31:17.729Z,101947.31
2022-10-09T14:51:24.912Z,101952.33
2022-10-09T14:55:08.700Z,101953.45
2022-10-09T14:58:41.438Z,101945.56
2022-10-09T15:02:14.038Z,101949.48
2022-10-09T15:06:12.749Z,101949.33
2022-10-09T15:10:05.805Z,101951.83
2022-10-09T15:14:03.159Z,101943.79
2022-10-09T15:17:49.278Z,101944.41
2022-10-09T15:21:42.293Z,101940.35
2022-10-09T15:25:35.055Z,101938.23
2022-10-09T15:29:11.920Z,101934.35
2022-10-09T15:33:02.483Z,101939.61
2022-10-09T15:36:45.079Z,101939.34
2022-10-09T15:40:29.296Z,101936.98
2022-10-09T15:44:15.347Z,101937.31
2022-10-09T15:48:07.566Z,101933.89
2022-10-09T15:51:57.719Z,101935.77
2022-10-09T15:55:48.017Z,101939.98
2022-10-09T15:59:38.389Z,101936.75
2022-10-09T16:02:52.632Z,101935.38
2022-10-09T16:06:43.240Z,101938.39
2022-10-09T16:10:03.761Z,101937.01
2022-10-09T16:13:19.548Z,101942.05
2022-10-09T16:17:11.458Z,101944.60
2022-10-09T16:21:05.434Z,101946.89
2022-10-09T16:25:01.466Z,101954.23
2022-10-09T16:28:58.427Z,101954.49
2022-10-09T16:32:48.749Z,101963.89
2022-10-09T16:36:43.232Z,101968.14
2022-10-09T16:40:32.613Z,101967.04
2022-10-09T16:44:35.409Z,101973.35
2022-10-09T16:48:04.673Z,101972.21
2022-10-09T16:51:14.840Z,101974.51
2022-10-09T16:54:08.149Z,101973.61
2022-10-09T16:57:39.936Z,101977.99
2022-10-09T17:01:31.357Z,101977.10
2022-10-09T17:04:49.994Z,101978.67
2022-10-09T17:08:01.422Z,101978.20
2022-10-09T17:11:17.515Z,101980.09
2022-10-09T17:14:52.277Z,101982.45
2022-10-09T17:18:13.932Z,101981.75
2022-10-09T17:21:15.643Z,101985.64
2022-10-09T17:24:19.261Z,101987.67
2022-10-09T17:28:05.624Z,101989.66
2022-10-09T17:31:30.045Z,101988.55
2022-10-09T17:34:49.258Z,101989.30
2022-10-09T17:38:04.614Z,101986.62
2022-10-09T17:41:01.009Z,101986.80
2022-10-09T17:44:19.601Z,101986.52
2022-10-09T17:47:42.458Z,101983.58
2022-10-09T17:51:17.573Z,101984.77
2022-10-09T17:54:38.440Z,101986.34
2022-10-09T17:58:02.144Z,101990.97
2022-10-09T18:01:52.116Z,101990.14
2022-10-09T18:05:08.721Z,101989.54
2022-10-09T18:07:53.830Z,101988.42
2022-10-09T18:11:26.529Z,101990.73
2022-10-09T18:14:48.316Z,101993.75
2022-10-09T18:18:23.998Z,101993.03
2022-10-09T18:21:47.124Z,101991.98
2022-10-09T18:24:30.233Z,101989.95
2022-10-09T18:27:16.032Z,101990.98
2022-10-09T18:30:19.868Z,101986.49
2022-10-09T18:32:56.256Z,101988.95
2022-10-09T18:35:45.502Z,101986.81
2022-10-09T18:39:07.346Z,101981.52
2022-10-09T18:42:06.612Z,101983.12
2022-10-09T18:45:26.183Z,101982.73
2022-10-09T18:48:30.575Z,101981.60
2022-10-09T18:51:14.998Z,101981.31
2022-10-09T18:54:36.071Z,101979.91
2022-10-09T18:57:51.912Z,101979.67
2022-10-09T19:00:28.248Z,101980.27
2022-10-09T19:03:20.169Z,101978.30
2022-10-09T19:06:49.169Z,101978.62
2022-10-09T19:09:42.038Z,101984.89
2022-10-09T19:12:24.120Z,101981.57
2022-10-09T19:15:26.496Z,101980.30
2022-10-09T19:18:35.208Z,101980.23
2022-10-09T19:21:21.490Z,101979.77
2022-10-09T19:24:16.049Z,101980.40
2022-10-09T19:26:56.153Z,101982.86
2022-10-09T19:29:41.105Z,101981.88
2022-10-09T19:32:19.185Z,101985.05
2022-10-09T19:35:00.008Z,101980.66
2022-10-09T19:37:31.864Z,101978.32
2022-10-09T19:40:05.145Z,101973.98
2022-10-09T19:42:52.253Z,101977.27
2022-10-09T19:45:29.126Z,101980.74
2022-10-09T19:48:09.975Z,101979.36
2022-10-09T19:50:49.303Z,101978.69
2022-10-09T19:53:42.364Z,101980.58
2022-10-09T19:56:44.095Z,101978.92
2022-10-09T19:59:48.887Z,101975.25
2022-10-09T20:02:40.749Z,101968.61
2022-10-09T20:05:30.672Z,101969.87
2022-10-09T20:08:16.109Z,101970.84
2022-10-09T20:11:20.311Z,101974.41
2022-10-09T20:14:17.510Z,101974.09
2022-10-09T20:17:40.367Z,101974.45
2022-10-09T20:20:26.450Z,101976.52
2022-10-09T20:23:05.741Z,101981.84
2022-10-09T20:25:34.572Z,101987.67
2022-10-09T20:28:48.294Z,101985.50
2022-10-09T20:32:12.205Z,101983.96
2022-10-09T20:34:50.921Z,101982.41
2022-10-09T20:37:49.735Z,101982.27
2022-10-09T20:40:27.822Z,101982.73
2022-10-09T20:43:09.402Z,101982.95
2022-10-09T20:45:44.741Z,101980.40
2022-10-09T20:48:35.923Z,101979.27
2022-10-09T20:51:24.881Z,101976.04
2022-10-09T20:54:54.850Z,101976.77
2022-10-09T20:57:37.268Z,101971.16
2022-10-09T21:00:08.882Z,101969.51
2022-10-09T21:03:18.011Z,101964.77
2022-10-09T21:06:13.848Z,101967.23
2022-10-09T21:08:47.517Z,101966.09
2022-10-09T21:11:24.040Z,101963.17
2022-10-09T21:15:02.781Z,101960.39
2022-10-09T21:17:33.042Z,101958.66
2022-10-09T21:20:16.755Z,101958.11
2022-10-09T21:22:58.406Z,101958.86
2022-10-09T21:25:29.124Z,101961.50
2022-10-09T21:28:24.189Z,101958.20
2022-10-09T21:30:52.802Z,101952.95
2022-10-09T21:33:47.355Z,101955.09
2022-10-09T21:37:19.762Z,101956.86
2022-10-09T21:40:03.036Z,101958.23
2022-10-09T21:42:31.431Z,101954.15
2022-10-09T21:45:09.117Z,101954.02
2022-10-09T21:47:37.470Z,101950.88
2022-10-09T21:50:45.998Z,101952.50
2022-10-09T21:53:33.193Z,101950.05
2022-10-09T21:56:26.406Z,101952.93
2022-10-09T21:59:18.257Z,101951.84
2022-10-09T22:01:46.914Z,101949.52
2022-10-09T22:04:39.116Z,101946.38
2022-10-09T22:07:10.656Z,101952.23
2022-10-09T22:09:41.970Z,101950.38
2022-10-09T22:12:15.904Z,101947.20
2022-10-09T22:15:23.910Z,101947.55
2022-10-09T22:17:52.731Z,101944.48
2022-10-09T22:20:30.853Z,101942.52
2022-10-09T22:23:13.461Z,101939.69
2022-10-09T22:25:59.114Z,101937.27
2022-10-09T22:28:27.646Z,101936.08
2022-10-09T22:31:06.614Z,101933.95
2022-10-09T22:33:49.805Z,101929.27
2022-10-09T22:36:21.593Z,101923.11
2022-10-09T22:38:56.824Z,101923.95
2022-10-09T22:41:27.755Z,101922.23
2022-10-09T22:44:00.436Z,101923.88
2022-10-09T22:46:36.505Z,101918.64
2022-10-09T22:49:32.478Z,101921.22
2022-10-09T22:52:09.720Z,101920.36
2022-10-09T22:55:14.371Z,101918.23
2022-10-09T22:57:42.456Z,101916.26
2022-10-09T23:00:23.294Z,101917.83
2022-10-09T23:03:01.475Z,101914.92
2022-10-09T23:05:29.434Z,101909.10
2022-10-09T23:07:58.677Z,101909.54
2022-10-09T23:10:30.991Z,101907.77
2022-10-09T23:13:03.872Z,101903.61
2022-10-09T23:15:36.071Z,101900.16
2022-10-09T23:18:07.660Z,101900.23
2022-10-09T23:20:55.871Z,101896.92
2022-10-09T23:23:24.303Z,101898.53
2022-10-09T23:26:11.047Z,101892.79
2022-10-09T23:28:51.772Z,101894.56
2022-10-09T23:31:39.870Z,101895.02
2022-10-09T23:34:08.000Z,101892.68
2022-10-09T23:36:50.766Z,101896.02
2022-10-09T23:39:22.544Z,101902.38
2022-10-09T23:41:52.429Z,101902.13
2022-10-09T23:44:22.305Z,101897.91
2022-10-09T23:47:00.879Z,101899.48
2022-10-09T23:49:29.133Z,101897.23
2022-10-09T23:51:58.865Z,101894.80
2022-10-09T23:54:27.607Z,101891.96
2022-10-09T23:56:56.648Z,101890.51
2022-10-09T23:59:31.150Z,101885.73
